Time;durP1;ratioP1;P1;durP2;ratioP2;P2;SDS_P1;SDS_P2;PMS_P1;PMS_P2;Temp;Humidity;BMP_temperature;BMP_pressure;BME280_temperature;BME280_humidity;BME280_pressure;Samples;Min_cycle;Max_cycle;Signal;HPM_P1;HPM_P2
2022/11/20 00:00:39;;;;;;;2.30;2.20;;;2.30;99.90;;;;;;6385718;28;20301;-67
2022/11/20 00:03:44;;;;;;;1.67;1.67;;;2.30;99.90;;;;;;6385336;28;20294;-66
2022/11/20 00:06:49;;;;;;;1.87;1.70;;;2.30;99.90;;;;;;6385934;28;20439;-67
2022/11/20 00:09:55;;;;;;;1.80;1.60;;;2.20;99.90;;;;;;6385811;28;20308;-67
2022/11/20 00:13:00;;;;;;;1.83;1.70;;;2.20;99.90;;;;;;6357600;28;20291;-66
2022/11/20 00:16:08;;;;;;;1.67;1.67;;;2.30;99.90;;;;;;6360118;28;20296;-66
2022/11/20 00:19:12;;;;;;;1.70;1.70;;;2.30;99.90;;;;;;6364515;28;20466;-67
2022/11/20 00:22:17;;;;;;;1.50;1.50;;;2.30;99.90;;;;;;6365483;28;20269;-67
2022/11/20 00:25:23;;;;;;;1.93;1.93;;;2.10;99.90;;;;;;6364983;28;20296;-67
2022/11/20 00:28:28;;;;;;;1.80;1.80;;;2.20;99.90;;;;;;6365051;28;20269;-66
2022/11/20 00:31:33;;;;;;;2.07;1.97;;;2.20;99.90;;;;;;6364884;28;20284;-67
2022/11/20 00:34:38;;;;;;;2.10;2.00;;;2.00;99.90;;;;;;6364605;28;20299;-67
2022/11/20 00:37:43;;;;;;;2.00;2.00;;;2.00;99.90;;;;;;6364830;28;20423;-67
2022/11/20 00:44:19;;;;;;;2.10;2.10;;;1.90;99.90;;;;;;6364541;28;20293;-67
2022/11/20 00:47:24;;;;;;;2.30;2.30;;;1.90;99.90;;;;;;6364693;28;20553;-67
2022/11/20 00:50:29;;;;;;;2.37;2.30;;;1.90;99.90;;;;;;6364037;28;20289;-67
2022/11/20 00:53:34;;;;;;;2.10;2.07;;;1.80;99.90;;;;;;6346217;28;20295;-67
2022/11/20 00:56:41;;;;;;;2.23;2.10;;;1.80;99.90;;;;;;6364123;28;20556;-67
2022/11/20 00:59:46;;;;;;;2.50;2.40;;;1.90;99.90;;;;;;6363514;28;20299;-67
2022/11/20 01:02:50;;;;;;;2.33;2.30;;;1.90;99.90;;;;;;6364081;28;20428;-67
2022/11/20 01:05:55;;;;;;;2.00;2.00;;;1.90;99.90;;;;;;6363975;28;20299;-67
2022/11/20 01:09:02;;;;;;;2.10;2.10;;;1.80;99.90;;;;;;6363815;28;20460;-67
2022/11/20 01:12:08;;;;;;;2.60;2.50;;;1.80;99.90;;;;;;6381609;27;20406;-66
2022/11/20 01:15:13;;;;;;;2.40;2.30;;;1.80;99.90;;;;;;6388954;27;20283;-66
2022/11/20 01:18:17;;;;;;;2.67;2.40;;;1.90;99.90;;;;;;6388843;27;20265;-66
2022/11/20 01:21:25;;;;;;;2.33;2.23;;;1.90;99.90;;;;;;6380865;27;20261;-66
2022/11/20 01:24:30;;;;;;;2.43;2.30;;;1.80;99.90;;;;;;6388677;27;20297;-66
2022/11/20 01:27:36;;;;;;;2.67;2.57;;;1.90;99.90;;;;;;6389350;27;20266;-66
2022/11/20 01:30:41;;;;;;;2.00;2.00;;;1.90;99.90;;;;;;6387952;27;20312;-67
2022/11/20 01:33:48;;;;;;;2.07;2.07;;;1.90;99.90;;;;;;6388753;27;20292;-67
2022/11/20 01:36:53;;;;;;;2.33;2.33;;;1.80;99.90;;;;;;6389260;27;20561;-66
2022/11/20 01:39:58;;;;;;;3.17;2.97;;;1.80;99.90;;;;;;6388504;27;20290;-67
2022/11/20 01:43:22;;;;;;;2.60;2.23;;;1.90;99.90;;;;;;6388367;27;20278;-67
2022/11/20 01:46:28;;;;;;;2.47;2.20;;;1.80;99.90;;;;;;6387899;27;20262;-67
2022/11/20 01:49:38;;;;;;;2.47;2.37;;;1.90;99.90;;;;;;6388052;27;20394;-66
2022/11/20 01:52:48;;;;;;;2.30;2.30;;;1.80;99.90;;;;;;6388794;27;20575;-66
2022/11/20 01:55:56;;;;;;;2.20;2.13;;;1.80;99.90;;;;;;6388386;27;20293;-67
2022/11/20 01:59:05;;;;;;;2.50;2.40;;;1.80;99.90;;;;;;6388282;27;20292;-66
2022/11/20 02:02:11;;;;;;;2.87;2.60;;;1.80;99.90;;;;;;6389012;27;20260;-66
2022/11/20 02:05:28;;;;;;;2.10;2.10;;;1.90;99.90;;;;;;6387811;27;20293;-67
2022/11/20 02:08:34;;;;;;;2.43;2.33;;;1.90;99.90;;;;;;6388122;27;20265;-66
2022/11/20 02:11:39;;;;;;;2.70;2.50;;;1.90;99.90;;;;;;6385353;27;20258;-67
2022/11/20 02:14:44;;;;;;;2.40;2.20;;;1.90;99.90;;;;;;6387324;27;20291;-67
2022/11/20 02:17:49;;;;;;;2.30;2.30;;;1.80;99.90;;;;;;6388457;27;20261;-67
2022/11/20 02:21:00;;;;;;;2.40;2.40;;;1.80;99.90;;;;;;6387628;27;20304;-67
2022/11/20 02:24:10;;;;;;;2.17;2.10;;;1.90;99.90;;;;;;6387283;27;20580;-66
2022/11/20 02:27:17;;;;;;;2.57;2.50;;;1.90;99.90;;;;;;6387545;27;20271;-66
2022/11/20 02:30:22;;;;;;;2.40;2.40;;;1.90;99.90;;;;;;6387339;27;20289;-67
2022/11/20 02:33:26;;;;;;;2.27;2.27;;;1.90;99.90;;;;;;6387133;27;20284;-67
2022/11/20 02:36:32;;;;;;;2.23;2.23;;;1.90;99.90;;;;;;6387375;27;20264;-66
2022/11/20 02:39:38;;;;;;;2.30;2.20;;;1.90;99.90;;;;;;6385663;27;20403;-66
2022/11/20 02:42:43;;;;;;;2.10;2.10;;;1.90;99.90;;;;;;6387600;27;20268;-66
2022/11/20 02:45:48;;;;;;;2.30;2.13;;;1.90;99.90;;;;;;6369125;27;20293;-67
2022/11/20 02:48:53;;;;;;;2.53;2.43;;;1.90;99.90;;;;;;6387144;27;20300;-66
2022/11/20 02:51:57;;;;;;;2.57;2.47;;;1.80;99.90;;;;;;6387566;27;20269;-66
2022/11/20 02:55:05;;;;;;;2.30;2.07;;;1.90;99.90;;;;;;6386625;27;20292;-68
2022/11/20 02:58:13;;;;;;;2.13;2.10;;;1.80;99.90;;;;;;6386520;27;20270;-67
2022/11/20 03:01:18;;;;;;;2.20;2.10;;;1.80;99.90;;;;;;6387196;27;20445;-66
2022/11/20 03:04:23;;;;;;;2.17;2.13;;;1.80;99.90;;;;;;6386402;27;20316;-66
2022/11/20 03:07:28;;;;;;;2.13;2.07;;;1.90;99.90;;;;;;6387206;27;20270;-66
2022/11/20 03:10:34;;;;;;;2.07;2.00;;;1.80;99.90;;;;;;6386097;27;20293;-66
2022/11/20 13:15:40;;;;;;;2.30;2.20;;;2.10;99.90;;;;;;6390762;27;20273;-66
2022/11/20 13:18:46;;;;;;;2.77;2.63;;;2.10;99.90;;;;;;6357503;28;20293;-67
2022/11/20 13:21:51;;;;;;;4.77;4.37;;;2.10;99.90;;;;;;6338008;28;20477;-67
2022/11/20 13:24:56;;;;;;;2.83;2.73;;;2.10;99.90;;;;;;6311721;28;20303;-68
2022/11/20 13:28:05;;;;;;;2.90;2.80;;;2.20;99.90;;;;;;6315354;28;20291;-67
2022/11/20 13:31:30;;;;;;;4.00;2.30;;;2.20;99.90;;;;;;6332509;28;20274;-67
2022/11/20 13:34:36;;;;;;;2.37;2.37;;;2.30;99.90;;;;;;6326960;28;20300;-68
2022/11/20 13:37:41;;;;;;;1.80;1.80;;;2.30;99.90;;;;;;6325770;28;20292;-66
2022/11/20 13:40:53;;;;;;;1.80;1.80;;;2.30;99.90;;;;;;6306904;28;20273;-67
2022/11/20 13:44:12;;;;;;;1.63;1.63;;;2.20;99.90;;;;;;6324199;28;20302;-67
2022/11/20 13:47:24;;;;;;;1.80;1.80;;;2.20;99.90;;;;;;6329399;28;20291;-66
2022/11/20 13:50:47;;;;;;;2.00;1.90;;;2.20;99.90;;;;;;6306834;28;20290;-67
2022/11/20 13:54:25;;;;;;;2.60;1.80;;;2.10;99.90;;;;;;6305938;28;20299;-67
2022/11/20 13:57:59;;;;;;;2.20;2.07;;;2.20;99.90;;;;;;6305479;28;20295;-67
2022/11/20 14:01:12;;;;;;;1.60;1.60;;;2.30;99.90;;;;;;6306180;28;20273;-66
2022/11/20 14:04:24;;;;;;;1.60;1.50;;;2.20;99.90;;;;;;6305671;28;20312;-67
2022/11/20 14:07:36;;;;;;;1.50;1.50;;;2.20;99.90;;;;;;6305611;28;20585;-67
2022/11/20 14:10:41;;;;;;;1.50;1.50;;;2.30;99.90;;;;;;6316755;28;20264;-66
2022/11/20 14:13:59;;;;;;;1.63;1.53;;;2.30;99.90;;;;;;6330156;28;20583;-66
2022/11/20 14:17:09;;;;;;;1.70;1.70;;;2.20;99.90;;;;;;6330598;28;20447;-66
2022/11/20 14:20:22;;;;;;;2.50;1.77;;;2.10;99.90;;;;;;6330754;28;20275;-67
2022/11/20 14:23:29;;;;;;;1.90;1.60;;;2.20;99.90;;;;;;6330143;28;20298;-66
2022/11/20 14:26:35;;;;;;;2.43;1.67;;;2.10;99.90;;;;;;6314336;28;20268;-66
2022/11/20 14:29:40;;;;;;;1.63;1.60;;;2.10;99.90;;;;;;6313997;28;20302;-67
2022/11/20 14:32:47;;;;;;;1.10;1.10;;;2.00;99.90;;;;;;6313784;28;20295;-67
2022/11/20 14:35:56;;;;;;;1.60;1.50;;;2.00;99.90;;;;;;6313820;28;20290;-67
2022/11/20 14:39:00;;;;;;;1.67;1.50;;;1.90;99.90;;;;;;6313164;28;20300;-67
2022/11/20 14:42:16;;;;;;;1.47;1.47;;;2.00;99.90;;;;;;6313206;28;20267;-67
2022/11/20 14:45:22;;;;;;;1.40;1.40;;;2.00;99.90;;;;;;6313696;28;20571;-66
2022/11/20 14:48:34;;;;;;;1.30;1.30;;;2.00;99.90;;;;;;6312611;28;20300;-68
2022/11/20 14:51:42;;;;;;;1.70;1.70;;;1.80;99.90;;;;;;6313741;28;20327;-67
2022/11/20 14:54:48;;;;;;;1.73;1.73;;;1.80;99.90;;;;;;6312814;28;20301;-67
2022/11/20 14:57:56;;;;;;;1.70;1.70;;;1.80;99.90;;;;;;6312520;28;20398;-67
2022/11/20 15:01:04;;;;;;;1.50;1.50;;;1.80;99.90;;;;;;6312958;28;20447;-66
2022/11/20 15:04:12;;;;;;;1.40;1.40;;;1.80;99.90;;;;;;6312807;28;20298;-67
2022/11/20 15:07:30;;;;;;;2.27;2.17;;;1.90;99.90;;;;;;6313023;28;20281;-67
2022/11/20 15:10:35;;;;;;;1.70;1.70;;;1.90;99.90;;;;;;6312309;28;20269;-67
2022/11/20 15:13:40;;;;;;;1.80;1.80;;;1.90;99.90;;;;;;6311995;28;20303;-66
2022/11/20 15:16:45;;;;;;;1.80;1.80;;;1.90;99.90;;;;;;6312649;28;20546;-68
2022/11/20 15:19:50;;;;;;;1.80;1.80;;;1.90;99.90;;;;;;6312445;28;20315;-67
2022/11/20 15:22:56;;;;;;;1.60;1.60;;;1.80;99.90;;;;;;6312335;28;20294;-67
2022/11/20 15:26:01;;;;;;;2.40;2.30;;;1.90;99.90;;;;;;6295165;28;20275;-67
2022/11/20 15:29:06;;;;;;;2.10;2.10;;;1.90;99.90;;;;;;6312325;28;20294;-67
2022/11/20 15:32:12;;;;;;;2.03;1.93;;;1.90;99.90;;;;;;6312040;28;20266;-67
2022/11/20 15:35:17;;;;;;;2.00;1.90;;;2.00;99.90;;;;;;6311162;28;20291;-66
2022/11/20 15:38:23;;;;;;;1.60;1.60;;;2.00;99.90;;;;;;6311463;28;20306;-67
2022/11/20 15:41:28;;;;;;;1.67;1.67;;;2.10;99.90;;;;;;6311811;28;20267;-67
2022/11/20 15:44:33;;;;;;;1.50;1.50;;;2.10;99.90;;;;;;6311689;28;20476;-67
2022/11/20 15:47:38;;;;;;;1.80;1.80;;;2.10;99.90;;;;;;6311283;28;20454;-67
2022/11/20 15:50:52;;;;;;;1.77;1.77;;;2.00;99.90;;;;;;6312604;28;20263;-67
2022/11/20 15:53:59;;;;;;;3.10;2.90;;;2.00;99.90;;;;;;6311530;28;20300;-67
2022/11/20 15:57:03;;;;;;;2.20;2.20;;;2.00;99.90;;;;;;6311631;28;20266;-66
2022/11/20 16:00:10;;;;;;;1.83;1.83;;;2.00;99.90;;;;;;6311908;28;20286;-67
2022/11/20 16:03:18;;;;;;;1.70;1.60;;;2.00;99.90;;;;;;6311329;28;20476;-67
2022/11/20 16:06:23;;;;;;;1.80;1.80;;;2.00;99.90;;;;;;6311703;28;20287;-66
2022/11/20 16:09:29;;;;;;;1.53;1.50;;;2.00;99.90;;;;;;6310812;28;20466;-66
2022/11/20 16:15:59;;;;;;;1.83;1.83;;;1.90;99.90;;;;;;6311043;28;20603;-67
2022/11/20 16:19:05;;;;;;;2.20;2.20;;;1.80;99.90;;;;;;6310956;28;20302;-67
2022/11/20 16:22:12;;;;;;;2.70;1.83;;;1.90;99.90;;;;;;6310561;28;20287;-67
2022/11/20 16:25:18;;;;;;;1.80;1.80;;;1.90;99.90;;;;;;6311116;28;20272;-67
2022/11/20 16:28:24;;;;;;;1.60;1.60;;;2.00;99.90;;;;;;6310973;28;20293;-67
2022/11/20 16:31:29;;;;;;;1.80;1.80;;;2.00;99.90;;;;;;6310835;28;20570;-67
2022/11/20 16:34:33;;;;;;;1.57;1.57;;;2.00;99.90;;;;;;6310246;28;20292;-67
2022/11/20 16:37:39;;;;;;;2.70;1.70;;;2.10;99.90;;;;;;6310278;28;20468;-66
2022/11/20 16:40:45;;;;;;;1.57;1.47;;;2.10;99.90;;;;;;6310447;28;20263;-67
2022/11/20 16:43:52;;;;;;;1.77;1.50;;;2.10;99.90;;;;;;6310260;28;20316;-67
2022/11/20 16:46:56;;;;;;;1.90;1.80;;;2.10;99.90;;;;;;6310421;28;20266;-67
2022/11/20 16:50:01;;;;;;;1.73;1.73;;;2.20;99.90;;;;;;6334976;28;20269;-66
2022/11/20 16:53:06;;;;;;;2.50;2.40;;;2.20;99.90;;;;;;6326155;28;20302;-67
2022/11/20 16:56:17;;;;;;;1.80;1.80;;;2.20;99.90;;;;;;6310576;28;20296;-67
2022/11/20 16:59:21;;;;;;;1.60;1.60;;;2.20;99.90;;;;;;6310602;28;20362;-67
2022/11/20 17:02:26;;;;;;;2.27;1.70;;;2.20;99.90;;;;;;6310302;28;20310;-67
2022/11/20 17:05:31;;;;;;;1.90;1.60;;;2.30;99.90;;;;;;6308617;28;20272;-67
2022/11/20 17:08:36;;;;;;;1.57;1.57;;;2.20;99.90;;;;;;6309964;28;20302;-65
2022/11/20 17:11:42;;;;;;;1.83;1.83;;;2.20;99.90;;;;;;6310541;28;20260;-66
2022/11/20 17:14:47;;;;;;;1.70;1.70;;;2.30;99.90;;;;;;6309707;28;20311;-67
2022/11/20 17:17:52;;;;;;;1.50;1.50;;;2.40;99.90;;;;;;6310450;28;20298;-66
2022/11/20 17:20:59;;;;;;;2.27;2.20;;;2.40;99.90;;;;;;6310957;28;20267;-66
2022/11/20 17:24:06;;;;;;;1.70;1.70;;;2.40;99.90;;;;;;6310100;28;20462;-67
2022/11/20 17:27:12;;;;;;;1.20;1.20;;;2.30;99.90;;;;;;6309907;28;20400;-66
2022/11/20 17:30:17;;;;;;;1.50;1.50;;;2.20;99.90;;;;;;6311080;28;20273;-67
2022/11/20 17:33:22;;;;;;;1.60;1.50;;;2.20;99.90;;;;;;6310524;28;20295;-68
2022/11/20 17:36:29;;;;;;;1.60;1.50;;;2.20;99.90;;;;;;6310711;28;20290;-67
2022/11/20 17:39:33;;;;;;;1.40;1.40;;;2.10;99.90;;;;;;6309745;28;20301;-67
2022/11/20 17:42:39;;;;;;;1.60;1.60;;;2.10;99.90;;;;;;6309726;28;20300;-67
2022/11/20 17:45:44;;;;;;;1.47;1.47;;;2.20;99.90;;;;;;6310458;28;20272;-67
2022/11/20 17:48:50;;;;;;;1.40;1.40;;;2.20;99.90;;;;;;6310016;28;20294;-66
2022/11/20 17:51:55;;;;;;;1.13;1.13;;;2.30;99.90;;;;;;6310390;28;20267;-67
2022/11/20 17:55:00;;;;;;;1.10;1.10;;;2.30;99.90;;;;;;6309748;28;20332;-67
2022/11/20 17:58:05;;;;;;;1.17;1.17;;;2.30;99.90;;;;;;6309438;28;20301;-67
2022/11/20 18:01:11;;;;;;;1.30;1.30;;;2.40;99.90;;;;;;6313695;28;20273;-67
2022/11/20 18:04:16;;;;;;;2.20;1.27;;;2.50;99.90;;;;;;6314559;28;20290;-66
2022/11/20 18:07:21;;;;;;;1.10;1.10;;;2.60;99.90;;;;;;6314073;28;20462;-66
2022/11/20 18:10:28;;;;;;;1.10;1.10;;;2.60;99.90;;;;;;6314578;28;20258;-65
2022/11/20 18:16:55;;;;;;;1.20;1.20;;;2.60;99.90;;;;;;6313612;28;20500;-66
2022/11/20 18:19:59;;;;;;;1.10;1.10;;;2.60;99.90;;;;;;6314069;28;20293;-66
2022/11/20 18:23:24;;;;;;;1.57;1.47;;;2.60;99.90;;;;;;6313934;28;20299;-66
2022/11/20 18:26:29;;;;;;;1.40;1.40;;;2.60;99.90;;;;;;6314190;28;20452;-66
2022/11/20 18:29:35;;;;;;;1.47;1.47;;;2.70;99.90;;;;;;6313759;28;20297;-66
2022/11/20 18:32:41;;;;;;;1.73;1.73;;;2.70;99.90;;;;;;6313739;28;20394;-66
2022/11/20 18:35:46;;;;;;;2.93;1.90;;;2.70;99.90;;;;;;6314370;28;20270;-66
2022/11/20 18:38:55;;;;;;;1.83;1.73;;;2.80;99.90;;;;;;6313654;28;20293;-68
2022/11/20 18:45:25;;;;;;;2.17;2.10;;;2.80;99.90;;;;;;6314323;28;20269;-66
2022/11/20 18:48:32;;;;;;;1.87;1.87;;;2.80;99.90;;;;;;6313580;28;20483;-67
2022/11/20 18:51:37;;;;;;;1.70;1.70;;;2.80;99.90;;;;;;6313720;28;20272;-66
2022/11/20 18:54:41;;;;;;;2.03;2.00;;;2.80;99.90;;;;;;6313672;28;20296;-67
2022/11/20 18:57:46;;;;;;;1.60;1.60;;;2.90;99.90;;;;;;6312982;28;20290;-66
2022/11/20 19:00:52;;;;;;;2.23;1.80;;;2.80;99.90;;;;;;6313423;28;20462;-67
2022/11/20 19:03:58;;;;;;;1.70;1.70;;;2.90;99.90;;;;;;6313293;28;20293;-67
2022/11/20 19:07:03;;;;;;;2.40;1.93;;;2.90;99.90;;;;;;6313059;28;20273;-67
2022/11/20 19:10:08;;;;;;;1.67;1.67;;;2.80;99.90;;;;;;6313019;28;20258;-67
2022/11/20 19:13:13;;;;;;;1.60;1.60;;;2.80;99.90;;;;;;6312749;28;20305;-68
2022/11/20 19:16:21;;;;;;;1.60;1.50;;;2.80;99.90;;;;;;6313314;28;20398;-68
2022/11/20 19:19:25;;;;;;;2.30;1.60;;;2.50;99.90;;;;;;6312233;28;20291;-66
2022/11/20 19:22:31;;;;;;;1.60;1.60;;;2.50;99.90;;;;;;6312261;28;20297;-68
2022/11/20 19:25:35;;;;;;;1.77;1.77;;;2.50;99.90;;;;;;6313143;28;20271;-67
2022/11/20 19:28:42;;;;;;;1.70;1.70;;;2.60;99.90;;;;;;6312426;28;20313;-66
2022/11/20 19:31:48;;;;;;;1.40;1.40;;;2.60;99.90;;;;;;6312935;28;20269;-67
2022/11/20 19:34:53;;;;;;;1.70;1.60;;;2.50;99.90;;;;;;6311928;28;20293;-67
2022/11/20 19:37:57;;;;;;;1.40;1.40;;;2.50;99.90;;;;;;6310937;28;20298;-66
2022/11/20 19:41:10;;;;;;;1.53;1.40;;;2.50;99.90;;;;;;6312543;28;20268;-66
2022/11/20 19:44:17;;;;;;;1.47;1.47;;;2.50;99.90;;;;;;6312119;28;20289;-67
2022/11/20 19:47:23;;;;;;;1.53;1.53;;;2.50;99.90;;;;;;6312086;28;20443;-67
2022/11/20 19:50:48;;;;;;;1.40;1.40;;;2.50;99.90;;;;;;6312413;28;20264;-67
2022/11/20 19:53:54;;;;;;;1.00;1.00;;;2.50;99.90;;;;;;6312011;28;20290;-67
2022/11/20 19:56:59;;;;;;;1.30;1.30;;;2.40;99.90;;;;;;6311607;28;20302;-67
2022/11/20 20:00:05;;;;;;;1.10;1.10;;;2.40;99.90;;;;;;6311363;28;20274;-67
2022/11/20 20:03:16;;;;;;;1.30;1.30;;;2.40;99.90;;;;;;6311951;28;20303;-66
2022/11/20 20:06:22;;;;;;;1.40;1.40;;;2.40;99.90;;;;;;6312025;28;20269;-67
2022/11/20 20:09:28;;;;;;;1.50;1.50;;;2.40;99.90;;;;;;6311426;28;20606;-67
2022/11/20 20:12:33;;;;;;;1.50;1.50;;;2.30;99.90;;;;;;6310974;28;20294;-67
2022/11/20 20:15:40;;;;;;;1.10;1.10;;;2.20;99.90;;;;;;6311810;28;20264;-67
2022/11/20 20:18:47;;;;;;;0.97;0.97;;;2.00;99.90;;;;;;6311358;28;20299;-65
2022/11/20 20:21:51;;;;;;;0.90;0.90;;;2.00;99.90;;;;;;6311357;28;20271;-67
2022/11/20 20:24:56;;;;;;;1.27;1.27;;;2.00;99.90;;;;;;6311133;28;20303;-67
2022/11/20 20:28:01;;;;;;;1.10;1.10;;;2.00;99.90;;;;;;6310740;28;20294;-66
2022/11/20 20:31:07;;;;;;;1.30;1.30;;;1.90;99.90;;;;;;6311500;28;20503;-66
2022/11/20 20:34:14;;;;;;;1.27;1.27;;;2.00;99.90;;;;;;6311400;28;20296;-66
2022/11/20 20:37:19;;;;;;;1.20;1.20;;;2.00;99.90;;;;;;6311112;28;20306;-66
2022/11/20 20:40:24;;;;;;;1.40;1.40;;;2.10;99.90;;;;;;6311320;28;20539;-67
2022/11/20 20:43:30;;;;;;;1.40;1.40;;;2.20;99.90;;;;;;6311256;28;20481;-67
2022/11/20 20:46:35;;;;;;;1.67;1.53;;;2.20;99.90;;;;;;6310892;28;20273;-67
2022/11/20 20:49:42;;;;;;;1.37;1.37;;;2.20;99.90;;;;;;6311205;28;20275;-67
2022/11/20 20:52:46;;;;;;;1.27;1.27;;;2.20;99.90;;;;;;6310377;28;20309;-67
2022/11/20 20:55:55;;;;;;;1.10;1.10;;;2.30;99.90;;;;;;6311418;28;20269;-67
2022/11/20 20:59:00;;;;;;;1.30;1.30;;;2.40;99.90;;;;;;6310863;28;20298;-67
2022/11/20 21:02:05;;;;;;;1.60;1.60;;;2.40;99.90;;;;;;6310769;28;20296;-67
2022/11/20 21:05:12;;;;;;;2.43;1.23;;;2.50;99.90;;;;;;6310857;28;20271;-66
2022/11/20 21:08:24;;;;;;;1.43;1.43;;;2.50;99.90;;;;;;6310438;28;20298;-66
2022/11/20 21:11:28;;;;;;;1.40;1.40;;;2.50;99.90;;;;;;6310199;28;20271;-68
2022/11/20 21:14:33;;;;;;;1.40;1.40;;;2.40;99.90;;;;;;6311208;28;20471;-66
2022/11/20 21:17:42;;;;;;;1.40;1.40;;;2.20;99.90;;;;;;6310418;28;20297;-66
2022/11/20 21:24:12;;;;;;;1.47;1.47;;;2.20;99.90;;;;;;6310434;28;20613;-66
2022/11/20 21:27:17;;;;;;;1.40;1.40;;;2.20;99.90;;;;;;6310518;28;20426;-66
2022/11/20 21:30:22;;;;;;;1.43;1.43;;;2.30;99.90;;;;;;6311023;28;20270;-66
2022/11/20 21:33:27;;;;;;;1.30;1.30;;;2.20;99.90;;;;;;6310365;28;20363;-67
2022/11/20 21:36:33;;;;;;;1.37;1.37;;;2.20;99.90;;;;;;6314200;28;20266;-67
2022/11/20 21:39:49;;;;;;;1.33;1.33;;;2.20;99.90;;;;;;6315715;28;20294;-67
2022/11/20 21:42:54;;;;;;;1.53;1.40;;;2.20;99.90;;;;;;6315053;28;20289;-66
2022/11/20 21:46:03;;;;;;;1.30;1.30;;;1.90;99.90;;;;;;6315583;28;20266;-66
2022/11/20 21:49:08;;;;;;;1.30;1.30;;;2.00;99.90;;;;;;6314871;28;20467;-66
2022/11/20 21:52:14;;;;;;;1.10;1.10;;;1.90;99.90;;;;;;6314228;28;20390;-65
2022/11/20 21:55:19;;;;;;;1.07;1.07;;;1.90;99.90;;;;;;6315251;28;20273;-66
2022/11/20 21:58:24;;;;;;;1.30;1.30;;;2.00;99.90;;;;;;6314519;28;20298;-67
2022/11/20 22:01:30;;;;;;;1.20;1.20;;;2.00;99.90;;;;;;6314753;28;20273;-68
2022/11/20 22:04:35;;;;;;;2.73;1.30;;;2.00;99.90;;;;;;6315029;28;20267;-67
2022/11/20 22:07:45;;;;;;;1.63;1.60;;;2.10;99.90;;;;;;6314775;28;20306;-66
2022/11/20 22:10:56;;;;;;;1.00;1.00;;;2.10;99.90;;;;;;6314403;28;20294;-67
2022/11/20 22:18:11;;;;;;;1.13;1.13;;;2.20;99.90;;;;;;6314309;28;20294;-67
2022/11/20 22:20:48;;;;;;;1.10;1.10;;;2.20;99.90;;;;;;6314736;28;20295;-66
2022/11/20 22:23:55;;;;;;;1.13;1.13;;;2.30;99.90;;;;;;6313801;28;20605;-65
2022/11/20 22:26:59;;;;;;;1.10;1.10;;;2.30;99.90;;;;;;6314155;28;20295;-65
2022/11/20 22:30:05;;;;;;;1.13;1.13;;;2.40;99.90;;;;;;6314544;28;20272;-66
2022/11/20 22:33:12;;;;;;;1.50;1.40;;;2.40;99.90;;;;;;6313422;28;20295;-66
2022/11/20 22:36:20;;;;;;;2.83;2.73;;;2.30;99.90;;;;;;6314466;28;20273;-66
2022/11/20 22:40:12;;;;;;;3.70;3.50;;;2.20;99.90;;;;;;6409630;27;20486;-67
2022/11/20 22:43:18;;;;;;;4.63;4.33;;;2.10;99.90;;;;;;6351810;27;20301;-67
2022/11/20 22:46:23;;;;;;;5.03;4.63;;;2.10;99.90;;;;;;6314725;28;20265;-67
2022/11/20 22:49:28;;;;;;;4.73;4.43;;;2.10;99.90;;;;;;6331414;28;20305;-67
2022/11/20 22:52:33;;;;;;;3.50;3.30;;;2.10;99.90;;;;;;6313688;28;20316;-67
2022/11/20 22:55:39;;;;;;;2.27;2.17;;;2.00;99.90;;;;;;6332064;28;20435;-67
2022/11/20 22:58:46;;;;;;;2.07;1.97;;;1.80;99.90;;;;;;6331198;28;20300;-66
2022/11/20 23:01:51;;;;;;;1.70;1.70;;;1.90;99.90;;;;;;6331176;28;20282;-67
2022/11/20 23:04:55;;;;;;;1.70;1.70;;;1.70;99.90;;;;;;6332177;28;20269;-67
2022/11/20 23:08:00;;;;;;;2.10;2.10;;;1.70;99.90;;;;;;6330945;28;20293;-67
2022/11/20 23:11:09;;;;;;;1.77;1.77;;;1.80;99.90;;;;;;6331886;28;20264;-67
2022/11/20 23:14:15;;;;;;;2.10;2.10;;;1.70;99.90;;;;;;6313541;28;20298;-66
2022/11/20 23:17:19;;;;;;;2.13;2.13;;;1.80;99.90;;;;;;6331050;28;20429;-66
2022/11/20 23:20:25;;;;;;;2.00;2.00;;;1.80;99.90;;;;;;6331818;28;20289;-66
2022/11/20 23:23:29;;;;;;;2.23;2.23;;;1.90;99.90;;;;;;6331083;28;20299;-66
2022/11/20 23:26:40;;;;;;;3.40;2.50;;;1.90;99.90;;;;;;6330985;28;20268;-66
2022/11/20 23:29:44;;;;;;;2.43;2.43;;;1.90;99.90;;;;;;6331630;28;20274;-66
2022/11/20 23:32:49;;;;;;;3.20;3.10;;;1.90;99.90;;;;;;6330717;28;20487;-66
2022/11/20 23:35:54;;;;;;;3.80;3.60;;;2.00;99.90;;;;;;6330798;28;20267;-66
2022/11/20 23:38:59;;;;;;;3.70;3.50;;;1.90;99.90;;;;;;6330051;28;20298;-67
2022/11/20 23:42:05;;;;;;;4.00;3.80;;;2.10;99.90;;;;;;6330609;28;20291;-66
2022/11/20 23:45:11;;;;;;;4.17;3.87;;;2.00;99.90;;;;;;6331682;28;20271;-66
2022/11/20 23:48:16;;;;;;;4.50;4.20;;;2.00;99.90;;;;;;6330367;28;20300;-66
2022/11/20 23:51:21;;;;;;;3.50;3.40;;;1.90;99.90;;;;;;6314912;28;20270;-66
2022/11/20 23:54:26;;;;;;;3.87;3.67;;;2.00;99.90;;;;;;6312172;28;20297;-66
2022/11/20 23:57:33;;;;;;;4.70;4.30;;;1.90;99.90;;;;;;6313322;28;20464;-66
